createdAt,value
2023-06-02T00:00:00.217Z,91.3
2023-06-02T00:05:00.183Z,91.4
2023-06-02T00:10:00.321Z,91.7
2023-06-02T00:15:00.157Z,91.8
2023-06-02T00:20:00.132Z,92
2023-06-02T00:25:00.122Z,92.2
2023-06-02T00:30:00.203Z,92.2
2023-06-02T00:35:00.146Z,92.5
2023-06-02T00:40:00.168Z,92.6
2023-06-02T00:45:00.133Z,92.6
2023-06-02T00:50:00.140Z,92.6
2023-06-02T00:55:00.139Z,92.7
2023-06-02T01:00:00.110Z,92.8
2023-06-02T01:05:00.161Z,93.2
2023-06-02T01:10:00.133Z,93.3
2023-06-02T01:15:00.138Z,93.4
2023-06-02T01:20:00.168Z,93.5
2023-06-02T01:25:00.169Z,93.6
2023-06-02T01:30:00.150Z,93.6
2023-06-02T01:35:00.142Z,93.7
2023-06-02T01:40:00.147Z,92.9
2023-06-02T01:45:00.117Z,93.1
2023-06-02T01:50:00.141Z,93
2023-06-02T01:55:00.110Z,93
2023-06-02T02:00:00.186Z,92.7
2023-06-02T02:05:00.105Z,92.7
2023-06-02T02:10:00.138Z,92.6
2023-06-02T02:15:00.197Z,92.4
2023-06-02T02:20:00.133Z,92.3
2023-06-02T02:25:00.113Z,92.2
2023-06-02T02:30:00.186Z,92.3
2023-06-02T02:35:00.173Z,92
2023-06-02T02:40:00.220Z,91.9
2023-06-02T02:45:00.191Z,91.9
2023-06-02T02:50:00.145Z,91.7
2023-06-02T02:55:00.131Z,91.7
2023-06-02T03:00:00.184Z,91.6
2023-06-02T03:05:00.131Z,91.7
2023-06-02T03:10:00.172Z,91.6
2023-06-02T03:15:00.154Z,91.6
2023-06-02T03:20:00.156Z,91.6
2023-06-02T03:25:00.119Z,91.3
2023-06-02T03:30:00.156Z,91.1
2023-06-02T03:35:00.171Z,91
2023-06-02T03:40:00.130Z,90.9
2023-06-02T03:45:00.122Z,90.7
2023-06-02T03:50:00.111Z,90.5
2023-06-02T03:55:00.116Z,90.8
2023-06-02T04:00:00.137Z,90.9
2023-06-02T04:05:00.137Z,90.5
2023-06-02T04:10:00.155Z,90.3
2023-06-02T04:15:00.134Z,90.2
2023-06-02T04:20:00.146Z,90.1
2023-06-02T04:25:00.143Z,88.7
2023-06-02T04:30:00.161Z,87.7
2023-06-02T04:35:00.113Z,86.2
2023-06-02T04:40:00.189Z,86
2023-06-02T04:45:00.119Z,85.6
2023-06-02T04:50:00.171Z,85.2
2023-06-02T04:55:00.144Z,85.5
2023-06-02T05:00:00.221Z,85.3
2023-06-02T05:05:00.142Z,84.8
2023-06-02T05:10:00.228Z,84.5
2023-06-02T05:15:00.116Z,84.5
2023-06-02T05:20:00.149Z,83.8
2023-06-02T05:25:00.144Z,80.8
2023-06-02T05:30:00.181Z,77.5
2023-06-02T05:35:00.181Z,75.1
2023-06-02T05:40:00.113Z,75.1
2023-06-02T05:45:00.141Z,69
2023-06-02T05:50:00.161Z,68.7
2023-06-02T05:55:00.148Z,68.7
2023-06-02T06:00:00.174Z,75.2
2023-06-02T06:05:00.136Z,76.2
2023-06-02T06:10:00.188Z,72.5
2023-06-02T06:15:00.158Z,69.2
2023-06-02T06:20:00.145Z,69.2
2023-06-02T06:25:00.169Z,69.2
2023-06-02T06:30:00.199Z,69.2
2023-06-02T06:35:00.100Z,69.2
2023-06-02T06:40:00.177Z,63.5
2023-06-02T06:45:00.098Z,62.7
2023-06-02T06:50:00.139Z,60.7
2023-06-02T06:55:00.169Z,59.5
2023-06-02T07:00:00.144Z,58.4
2023-06-02T07:05:00.136Z,58.4
2023-06-02T07:10:00.318Z,54.7
2023-06-02T07:15:00.106Z,51.3
2023-06-02T07:20:00.156Z,45.9
2023-06-02T07:25:00.133Z,44.1
2023-06-02T07:30:00.137Z,41.4
2023-06-02T07:35:00.213Z,40.6
2023-06-02T07:40:00.167Z,38
2023-06-02T07:45:00.142Z,39.8
2023-06-02T07:50:00.237Z,39.9
2023-06-02T07:55:00.171Z,76.4
2023-06-02T08:00:00.183Z,38.1
2023-06-02T08:05:00.214Z,36.4
2023-06-02T08:10:00.460Z,36.4
2023-06-02T08:15:00.140Z,36.3
2023-06-02T08:20:00.202Z,34.3
2023-06-02T08:25:00.200Z,34.7
2023-06-02T08:30:00.229Z,34.7
2023-06-02T08:35:01.434Z,34.6
2023-06-02T08:40:00.127Z,34.2
2023-06-02T08:45:00.130Z,33.6
2023-06-02T08:50:00.205Z,31.3
2023-06-02T08:55:00.195Z,30.7
2023-06-02T09:00:00.184Z,29.4
2023-06-02T09:05:00.183Z,29.6
2023-06-02T09:10:00.478Z,28.3
2023-06-02T09:15:00.167Z,28
2023-06-02T09:20:00.106Z,27.3
2023-06-02T09:25:00.144Z,27.1
2023-06-02T09:30:00.168Z,26.7
2023-06-02T09:35:00.158Z,26.5
2023-06-02T09:40:00.161Z,26.3
2023-06-02T09:45:00.133Z,26.6
2023-06-02T09:50:00.169Z,26.8
2023-06-02T09:55:00.153Z,26.4
2023-06-02T10:00:00.196Z,26.9
2023-06-02T10:05:00.138Z,25.3
2023-06-02T10:10:00.166Z,26.4
2023-06-02T10:15:00.148Z,26.9
2023-06-02T10:20:00.210Z,26.8
2023-06-02T10:25:00.151Z,26.7
2023-06-02T10:30:00.204Z,26.3
2023-06-02T10:35:00.138Z,26.2
2023-06-02T10:40:00.153Z,25.6
2023-06-02T10:45:00.170Z,26.3
2023-06-02T10:50:00.162Z,26.7
2023-06-02T10:55:00.161Z,26.6
2023-06-02T11:00:00.216Z,27.5
2023-06-02T11:05:00.168Z,28
2023-06-02T11:10:00.212Z,27.9
2023-06-02T11:15:00.176Z,27.3
2023-06-02T11:20:00.241Z,26.9
2023-06-02T11:25:00.150Z,27.3
2023-06-02T11:30:00.148Z,28.7
2023-06-02T11:35:00.176Z,29.1
2023-06-02T11:40:00.173Z,29.9
2023-06-02T11:45:00.145Z,30.6
2023-06-02T11:50:00.182Z,31.2
2023-06-02T11:55:00.368Z,31.9
2023-06-02T12:00:00.134Z,32.2
2023-06-02T12:05:00.298Z,32
2023-06-02T12:10:00.181Z,31.5
2023-06-02T12:15:00.177Z,31.2
2023-06-02T12:20:00.215Z,32.1
2023-06-02T12:25:00.144Z,33.4
2023-06-02T12:30:00.144Z,34.8
2023-06-02T12:35:00.138Z,36.1
2023-06-02T12:40:00.257Z,37.1
2023-06-02T12:45:00.137Z,37.7
2023-06-02T12:50:00.160Z,37.8
2023-06-02T12:55:00.217Z,37.6
2023-06-02T13:00:00.222Z,39.3
2023-06-02T13:05:00.127Z,40.2
2023-06-02T13:10:00.231Z,41.3
2023-06-02T13:15:00.159Z,42.2
2023-06-02T13:20:00.223Z,42.3
2023-06-02T13:25:00.641Z,41.5
2023-06-02T13:30:00.197Z,41
2023-06-02T13:35:00.129Z,39.9
2023-06-02T13:40:00.194Z,39.7
2023-06-02T13:45:00.151Z,38.1
2023-06-02T13:50:00.156Z,36.7
2023-06-02T13:55:00.158Z,35.6
2023-06-02T14:00:00.202Z,35.3
2023-06-02T14:05:00.156Z,34.9
2023-06-02T14:10:00.190Z,34.5
2023-06-02T14:15:00.143Z,34.1
2023-06-02T14:20:00.121Z,34
2023-06-02T14:25:00.181Z,34
2023-06-02T14:30:00.183Z,34.2
2023-06-02T14:35:00.186Z,34.3
2023-06-02T14:40:00.172Z,34.9
2023-06-02T14:45:00.133Z,35.8
2023-06-02T14:50:00.164Z,36.7
2023-06-02T14:55:00.259Z,37.5
2023-06-02T15:00:00.188Z,38.1
2023-06-02T15:05:00.144Z,38.1
2023-06-02T15:10:00.155Z,38.4
2023-06-02T15:15:00.163Z,38.2
2023-06-02T15:20:00.146Z,38
2023-06-02T15:25:00.150Z,37.6
2023-06-02T15:30:00.130Z,36.5
2023-06-02T15:35:00.136Z,35.7
2023-06-02T15:40:00.132Z,35.4
2023-06-02T15:45:00.158Z,35
2023-06-02T15:50:00.127Z,34.7
2023-06-02T15:55:00.147Z,34.7
2023-06-02T16:00:00.193Z,35.1
2023-06-02T16:05:00.174Z,33.1
2023-06-02T16:10:00.290Z,34.4
2023-06-02T16:15:00.160Z,34.4
2023-06-02T16:20:00.117Z,34.2
2023-06-02T16:25:00.174Z,33.6
2023-06-02T16:30:00.153Z,33.4
2023-06-02T16:35:00.153Z,33.4
2023-06-02T16:40:00.219Z,33.8
2023-06-02T16:45:00.208Z,33.7
2023-06-02T16:50:00.293Z,33.7
2023-06-02T16:55:00.216Z,33.9
2023-06-02T17:00:00.256Z,34
2023-06-02T17:05:00.166Z,34.2
2023-06-02T17:10:00.259Z,34.3
2023-06-02T17:15:00.155Z,34.5
2023-06-02T17:20:00.135Z,34.1
2023-06-02T17:25:00.164Z,33.4
2023-06-02T17:30:00.210Z,32.8
2023-06-02T17:35:00.147Z,32.6
2023-06-02T17:40:00.581Z,32.7
2023-06-02T17:45:00.246Z,32.5
2023-06-02T17:50:00.158Z,32.6
2023-06-02T17:55:00.208Z,32.5
2023-06-02T18:00:00.179Z,32.5
2023-06-02T18:05:00.165Z,32.6
2023-06-02T18:10:00.152Z,32.9
2023-06-02T18:15:00.176Z,33.1
2023-06-02T18:20:00.159Z,33.1
2023-06-02T18:25:00.167Z,32.9
2023-06-02T18:30:00.177Z,32.6
2023-06-02T18:35:00.133Z,32.5
2023-06-02T18:40:00.160Z,32.3
2023-06-02T18:45:00.184Z,32.5
2023-06-02T18:50:00.218Z,32.6
2023-06-02T18:55:00.155Z,32.8
2023-06-02T19:00:00.193Z,33.1
2023-06-02T19:05:00.153Z,33.4
2023-06-02T19:10:00.158Z,33.7
2023-06-02T19:15:00.135Z,31.8
2023-06-02T19:20:00.182Z,33.2
2023-06-02T19:25:00.220Z,32.9
2023-06-02T19:30:00.241Z,32.5
2023-06-02T19:35:00.132Z,32.2
2023-06-02T19:40:00.158Z,32
2023-06-02T19:45:00.124Z,31.9
2023-06-02T19:50:00.193Z,31.8
2023-06-02T19:55:00.118Z,31.6
2023-06-02T20:00:00.200Z,31.4
2023-06-02T20:05:00.132Z,31.1
2023-06-02T20:10:00.148Z,30.8
2023-06-02T20:15:00.109Z,30.7
2023-06-02T20:20:00.152Z,30.8
2023-06-02T20:25:00.128Z,30.9
2023-06-02T20:30:00.188Z,30.9
2023-06-02T20:35:00.148Z,30.9
2023-06-02T20:40:00.120Z,31
2023-06-02T20:45:00.098Z,31.1
2023-06-02T20:50:00.148Z,31
2023-06-02T20:55:00.158Z,31
2023-06-02T21:00:00.134Z,31.2
2023-06-02T21:05:00.140Z,31.2
2023-06-02T21:10:00.211Z,31.3
2023-06-02T21:15:00.138Z,31.5
2023-06-02T21:20:00.169Z,31.6
2023-06-02T21:25:00.132Z,31.7
2023-06-02T21:30:00.154Z,31.8
2023-06-02T21:35:00.111Z,30.4
2023-06-02T21:40:00.143Z,32
2023-06-02T21:45:00.122Z,32
2023-06-02T21:50:00.116Z,32.1
2023-06-02T21:55:00.130Z,32.2
2023-06-02T22:00:00.233Z,32.3
2023-06-02T22:05:00.112Z,32.3
2023-06-02T22:10:00.200Z,32.5
2023-06-02T22:15:00.162Z,32.6
2023-06-02T22:20:00.133Z,32.8
2023-06-02T22:25:00.153Z,33
2023-06-02T22:30:00.143Z,33.3
2023-06-02T22:35:00.158Z,33.6
2023-06-02T22:40:00.121Z,33.9
2023-06-02T22:45:00.113Z,34.2
2023-06-02T22:50:00.127Z,34.6
2023-06-02T22:55:00.128Z,35
2023-06-02T23:00:00.164Z,35.4
2023-06-02T23:05:00.124Z,36
2023-06-02T23:10:00.099Z,36.4
2023-06-02T23:15:00.134Z,36.7
2023-06-02T23:20:00.119Z,37
2023-06-02T23:25:00.131Z,37.4
2023-06-02T23:30:00.153Z,37.7
2023-06-02T23:35:00.323Z,38.1
2023-06-02T23:40:00.163Z,38.4
2023-06-02T23:45:00.154Z,38.7
2023-06-02T23:50:00.154Z,38.9
2023-06-02T23:55:00.112Z,39.1
